Time;durP1;ratioP1;P1;durP2;ratioP2;P2;SDS_P1;SDS_P2;PMS_P1;PMS_P2;Temp;Humidity;BMP_temperature;BMP_pressure;BME280_temperature;BME280_humidity;BME280_pressure;Samples;Min_cycle;Max_cycle;Signal;HPM_P1;HPM_P2
2021/07/02 06:57:29;;;;;;;6.20;5.60;;;27.40;74.60;;;;;;6069899;23;20404;-91
2021/07/02 07:00:03;;;;;;;5.93;5.43;;;27.90;71.60;;;;;;6073389;23;20457;-92
2021/07/02 07:02:30;;;;;;;6.10;5.70;;;28.40;68.70;;;;;;6149145;23;20766;-92
2021/07/02 07:04:57;;;;;;;5.50;5.10;;;28.70;63.90;;;;;;6221120;22;20527;-92
2021/07/02 07:07:24;;;;;;;5.80;5.40;;;28.90;63.00;;;;;;6312653;22;20414;-92
2021/07/02 07:09:53;;;;;;;6.10;5.60;;;29.20;63.00;;;;;;6313666;22;20430;-92
2021/07/02 07:15:19;;;;;;;6.47;5.97;;;29.90;59.40;;;;;;6307805;22;20391;-92
2021/07/02 07:17:49;;;;;;;6.13;5.60;;;30.10;58.50;;;;;;6313725;22;20383;-92
2021/07/02 07:20:36;;;;;;;6.50;6.00;;;29.30;58.60;;;;;;6315591;22;20765;-92
2021/07/02 07:25:48;;;;;;;5.80;5.20;;;28.30;60.90;;;;;;6314206;22;20481;-92
2021/07/02 07:33:33;;;;;;;6.67;6.17;;;29.50;58.10;;;;;;6333718;22;20437;-92
2021/07/02 07:36:15;;;;;;;;;;;;;;;;;;;;;
2021/07/02 07:39:03;;;;;;;6.20;5.60;;;30.50;56.40;;;;;;6321868;22;20432;-92
2021/07/02 07:45:52;;;;;;;6.83;6.33;;;32.50;53.00;;;;;;6308858;22;20442;-92
2021/07/02 07:48:49;;;;;;;9.90;5.70;;;33.70;50.80;;;;;;6310054;22;20406;-91
2021/07/02 07:51:46;;;;;;;5.63;5.13;;;33.10;48.30;;;;;;6309971;22;20414;-92
2021/07/02 07:54:34;;;;;;;6.13;5.63;;;30.50;50.70;;;;;;6309332;22;20493;-92
2021/07/02 07:57:11;;;;;;;5.80;5.30;;;28.10;53.90;;;;;;6309541;22;20413;-91
2021/07/02 07:59:38;;;;;;;10.33;5.93;;;26.70;56.70;;;;;;6309033;22;20451;-91
2021/07/02 08:02:10;;;;;;;5.67;5.17;;;25.60;59.80;;;;;;6312142;22;20412;-91
2021/07/02 08:07:55;;;;;;;7.30;5.73;;;26.20;60.10;;;;;;6151750;23;20407;-91
2021/07/02 08:10:26;;;;;;;5.50;5.00;;;27.50;57.50;;;;;;6181695;22;20426;-92
2021/07/02 08:13:27;;;;;;;5.30;4.90;;;29.10;55.20;;;;;;6317314;22;20414;-92
2021/07/02 08:16:24;;;;;;;5.50;5.10;;;29.90;53.00;;;;;;6316324;22;20406;-91
2021/07/02 08:19:03;;;;;;;7.33;6.63;;;29.70;52.90;;;;;;6314878;22;20437;-91
2021/07/02 08:21:35;;;;;;;6.20;5.60;;;30.70;51.90;;;;;;6312461;22;20872;-91
2021/07/02 08:24:52;;;;;;;5.90;5.37;;;31.10;50.60;;;;;;6310949;22;20414;-91
2021/07/02 08:31:40;;;;;;;5.10;4.70;;;31.30;49.50;;;;;;6037399;23;20400;-93
2021/07/02 08:38:34;;;;;;;6.80;6.20;;;32.20;46.60;;;;;;6095545;23;20410;-92
2021/07/02 09:12:09;;;;;;;6.40;5.80;;;35.90;39.60;;;;;;6347801;22;20390;-92
2021/07/02 09:14:50;;;;;;;5.57;5.10;;;36.90;38.80;;;;;;6356625;22;20435;-93
2021/07/02 09:20:35;;;;;;;6.50;6.00;;;33.90;40.60;;;;;;6299589;22;20409;-92
2021/07/02 09:23:50;;;;;;;6.70;6.20;;;31.50;43.90;;;;;;6365755;22;20389;-92
2021/07/02 09:34:10;;;;;;;6.57;5.80;;;28.80;51.30;;;;;;6305015;22;20420;-92
2021/07/02 09:37:15;;;;;;;5.60;5.10;;;32.20;46.70;;;;;;6227869;23;20409;-91
2021/07/02 11:02:39;;;;;;;6.23;5.63;;;40.00;30.50;;;;;;6268041;22;20453;-88
2021/07/02 11:05:31;;;;;;;6.60;6.10;;;40.40;30.00;;;;;;6343608;22;20425;-89
2021/07/02 11:07:59;;;;;;;6.20;5.80;;;40.20;29.40;;;;;;6344284;22;20409;-87
2021/07/02 11:10:28;;;;;;;6.27;5.77;;;39.50;30.00;;;;;;6345867;22;20401;-87
2021/07/02 11:13:02;;;;;;;5.33;4.83;;;39.50;30.00;;;;;;6313889;22;20426;-88
2021/07/02 11:15:29;;;;;;;5.90;5.50;;;39.20;29.50;;;;;;6311004;22;20390;-88
2021/07/02 11:18:17;;;;;;;6.30;5.33;;;38.90;29.20;;;;;;6320599;22;20493;-88
2021/07/02 11:20:45;;;;;;;6.60;6.10;;;39.00;30.30;;;;;;6326985;22;20379;-87
2021/07/02 11:23:23;;;;;;;6.27;5.73;;;38.30;30.00;;;;;;6324701;22;20414;-88
2021/07/02 11:25:56;;;;;;;5.80;5.40;;;36.70;31.00;;;;;;6317411;22;20434;-88
2021/07/02 11:28:51;;;;;;;5.67;5.17;;;36.10;32.70;;;;;;6319699;22;20387;-88
2021/07/02 11:31:18;;;;;;;6.53;6.03;;;36.30;32.20;;;;;;6330931;22;20449;-88
2021/07/02 11:33:48;;;;;;;6.80;6.30;;;36.60;33.20;;;;;;6335324;22;20428;-88
2021/07/02 11:36:17;;;;;;;6.13;5.67;;;36.70;32.90;;;;;;6330995;22;20454;-87
2021/07/02 11:38:47;;;;;;;6.00;5.47;;;36.60;33.00;;;;;;6333749;22;20409;-88
2021/07/02 11:41:25;;;;;;;6.00;5.50;;;38.60;32.40;;;;;;6327365;22;20410;-89
2021/07/02 11:43:52;;;;;;;5.93;5.53;;;40.20;29.90;;;;;;6331396;22;20402;-88
2021/07/02 11:46:21;;;;;;;7.87;5.57;;;39.90;29.90;;;;;;6334749;22;20389;-88
2021/07/02 11:48:54;;;;;;;6.50;6.00;;;39.90;29.30;;;;;;6336404;22;20406;-89
2021/07/02 11:51:24;;;;;;;6.10;5.60;;;39.60;29.50;;;;;;6334711;22;20434;-88
2021/07/02 11:53:53;;;;;;;6.03;5.50;;;38.70;30.30;;;;;;6333311;22;20410;-89
2021/07/02 11:56:23;;;;;;;6.33;5.60;;;38.70;30.20;;;;;;6325991;22;20394;-87
2021/07/02 11:58:52;;;;;;;6.93;6.33;;;38.10;30.20;;;;;;6314880;22;20417;-88
2021/07/02 12:01:21;;;;;;;5.70;5.20;;;38.30;30.80;;;;;;6312953;22;20509;-88
2021/07/02 12:03:52;;;;;;;6.23;5.73;;;38.30;30.90;;;;;;6313942;22;20383;-88
2021/07/02 12:06:27;;;;;;;6.90;6.30;;;37.40;31.10;;;;;;6324205;22;20437;-88
2021/07/02 12:09:00;;;;;;;6.73;6.23;;;38.30;30.80;;;;;;6316546;22;20397;-88
2021/07/02 12:11:36;;;;;;;6.40;5.80;;;39.40;30.00;;;;;;6320647;22;20425;-88
2021/07/02 12:14:08;;;;;;;6.13;5.63;;;39.60;29.70;;;;;;6321866;22;20742;-89
2021/07/02 12:16:37;;;;;;;6.47;5.97;;;39.70;29.60;;;;;;6311455;22;20472;-89
2021/07/02 12:19:08;;;;;;;6.53;5.93;;;39.10;29.50;;;;;;6311022;22;20410;-89
2021/07/02 12:21:36;;;;;;;5.90;5.50;;;39.30;29.20;;;;;;6311781;22;20426;-89
2021/07/02 12:24:06;;;;;;;6.53;6.03;;;39.20;29.10;;;;;;6310045;22;20414;-90
2021/07/02 12:26:34;;;;;;;5.60;5.20;;;38.00;29.60;;;;;;6310173;22;20403;-89
2021/07/02 12:29:09;;;;;;;6.37;5.87;;;37.40;29.90;;;;;;6310409;22;20406;-89
2021/07/02 12:31:40;;;;;;;10.43;5.80;;;37.30;30.50;;;;;;6317273;22;20441;-89
2021/07/02 12:34:13;;;;;;;6.73;6.13;;;37.90;30.50;;;;;;6331220;22;20355;-91
2021/07/02 12:36:55;;;;;;;6.30;5.77;;;37.90;30.50;;;;;;6311933;22;20393;-92
2021/07/02 12:39:26;;;;;;;6.50;6.00;;;38.00;30.40;;;;;;6311686;22;20527;-91
2021/07/02 12:45:10;;;;;;;;;;;;;;;;;;;;;
2021/07/02 13:15:13;;;;;;;6.23;5.83;;;35.00;33.10;;;;;;6097324;23;20448;-83
2021/07/02 13:17:46;;;;;;;6.10;5.60;;;34.90;33.90;;;;;;6287602;22;20387;-83
2021/07/02 13:20:14;;;;;;;5.73;5.33;;;35.10;33.60;;;;;;6258473;22;20400;-83
2021/07/02 13:22:42;;;;;;;6.57;6.00;;;35.90;32.80;;;;;;6255932;22;20428;-84
2021/07/02 13:25:10;;;;;;;6.40;5.90;;;37.20;31.40;;;;;;6255144;23;20443;-84
2021/07/02 13:27:37;;;;;;;6.90;6.40;;;36.90;32.10;;;;;;6249621;23;20418;-84
2021/07/02 13:30:08;;;;;;;6.87;6.27;;;37.50;31.10;;;;;;6248690;23;20415;-83
2021/07/02 13:32:35;;;;;;;6.70;6.20;;;37.40;31.50;;;;;;6249998;22;20922;-85
2021/07/02 13:35:20;;;;;;;7.03;6.43;;;37.70;31.60;;;;;;6259655;23;20434;-84
2021/07/02 13:37:53;;;;;;;6.53;5.87;;;38.00;31.10;;;;;;6249291;23;20388;-84
2021/07/02 13:40:34;;;;;;;6.43;6.00;;;38.10;30.00;;;;;;6246980;23;20454;-85
2021/07/02 13:43:03;;;;;;;9.37;7.20;;;37.30;30.50;;;;;;6245520;22;20424;-85
2021/07/02 13:45:30;;;;;;;6.57;6.07;;;37.00;31.80;;;;;;6247338;23;20450;-84
2021/07/02 13:48:07;;;;;;;6.53;6.03;;;36.80;31.60;;;;;;6248198;23;20404;-83
2021/07/02 13:50:37;;;;;;;6.23;5.73;;;37.10;31.10;;;;;;6248889;23;20392;-84
2021/07/02 13:53:12;;;;;;;7.57;7.07;;;36.90;31.60;;;;;;6248671;22;20957;-84
2021/07/02 13:55:39;;;;;;;6.93;6.23;;;35.60;33.70;;;;;;6263250;23;20439;-83
2021/07/02 13:58:06;;;;;;;6.17;5.77;;;34.40;34.80;;;;;;6260617;22;20724;-84
2021/07/02 14:00:32;;;;;;;6.37;5.77;;;33.60;36.20;;;;;;6247830;23;20475;-84
2021/07/02 14:02:59;;;;;;;5.63;5.13;;;33.20;36.70;;;;;;6245802;22;20796;-84
2021/07/02 14:05:26;;;;;;;5.70;5.30;;;33.60;36.40;;;;;;6244966;23;20444;-84
2021/07/02 14:07:54;;;;;;;6.90;6.33;;;33.00;36.80;;;;;;6245543;23;20400;-86
2021/07/02 14:10:20;;;;;;;7.20;6.60;;;31.80;37.80;;;;;;6247884;23;20411;-86
2021/07/02 14:12:47;;;;;;;8.07;7.13;;;31.60;39.20;;;;;;6249820;22;20811;-86
2021/07/02 14:15:14;;;;;;;6.83;6.33;;;32.10;38.80;;;;;;6249067;23;20400;-87
2021/07/02 14:17:41;;;;;;;7.77;6.97;;;33.70;37.50;;;;;;6249442;23;20887;-86
2021/07/02 14:20:09;;;;;;;6.63;6.03;;;34.60;36.40;;;;;;6248474;23;20468;-87
2021/07/02 14:22:37;;;;;;;7.40;6.00;;;35.20;35.00;;;;;;6250384;22;20446;-87
2021/07/02 14:25:07;;;;;;;6.53;6.03;;;34.60;34.90;;;;;;6264429;23;20439;-87
2021/07/02 14:27:34;;;;;;;8.90;8.10;;;32.90;37.50;;;;;;6257879;23;20475;-86
2021/07/02 14:30:00;;;;;;;8.80;8.10;;;31.90;38.80;;;;;;6259806;23;20402;-87
2021/07/02 14:32:27;;;;;;;10.50;8.00;;;30.40;40.80;;;;;;6270983;22;20476;-86
2021/07/02 14:34:54;;;;;;;7.33;6.73;;;29.40;44.00;;;;;;6271764;22;20483;-87
2021/07/02 14:37:20;;;;;;;7.83;7.13;;;28.60;46.10;;;;;;6271185;22;20404;-88
2021/07/02 14:39:47;;;;;;;8.20;6.93;;;28.20;47.00;;;;;;6259242;23;20400;-87
2021/07/02 14:42:15;;;;;;;8.10;7.40;;;28.10;47.40;;;;;;6268049;22;20430;-87
2021/07/02 14:44:42;;;;;;;8.53;6.87;;;28.20;47.80;;;;;;6262173;23;20404;-88
2021/07/02 14:47:09;;;;;;;7.93;7.27;;;28.30;47.50;;;;;;6252108;23;20413;-87
2021/07/02 14:49:36;;;;;;;7.43;6.80;;;28.30;47.30;;;;;;6259751;23;20415;-88
2021/07/02 14:52:04;;;;;;;6.50;6.00;;;28.40;47.20;;;;;;6257274;22;20428;-86
2021/07/02 14:54:30;;;;;;;6.43;5.83;;;28.50;47.20;;;;;;6252299;23;20499;-86
2021/07/02 14:56:57;;;;;;;6.50;5.90;;;28.50;47.00;;;;;;6267728;23;20476;-87
2021/07/02 14:59:25;;;;;;;6.53;5.93;;;28.40;46.00;;;;;;6271937;23;20426;-87
2021/07/02 15:01:52;;;;;;;6.20;5.60;;;28.10;46.90;;;;;;6251759;22;20437;-86
2021/07/02 15:04:19;;;;;;;7.33;6.50;;;28.00;47.60;;;;;;6252959;23;20573;-85
2021/07/02 15:06:45;;;;;;;6.60;6.07;;;27.80;48.00;;;;;;6249325;23;20774;-86
2021/07/02 15:09:12;;;;;;;7.43;6.73;;;27.80;47.60;;;;;;6255547;23;20408;-86
2021/07/02 15:11:39;;;;;;;8.20;6.73;;;27.60;47.80;;;;;;6248717;22;20430;-86
2021/07/02 15:14:06;;;;;;;11.10;5.80;;;27.50;48.10;;;;;;6249254;23;20895;-85
2021/07/02 15:16:34;;;;;;;12.70;6.70;;;27.40;48.80;;;;;;6248544;23;20398;-87
2021/07/02 15:19:00;;;;;;;7.40;6.60;;;27.40;49.10;;;;;;6250406;23;20429;-86
2021/07/02 15:21:28;;;;;;;6.77;6.10;;;27.30;49.00;;;;;;6260296;22;20438;-87
2021/07/02 15:23:55;;;;;;;7.23;6.00;;;26.90;50.40;;;;;;6262302;23;20422;-86
2021/07/02 15:26:21;;;;;;;7.47;6.87;;;26.60;50.40;;;;;;6258428;23;20436;-86
2021/07/02 15:28:48;;;;;;;6.70;6.10;;;26.50;50.30;;;;;;6254676;23;20738;-86
2021/07/02 15:31:53;;;;;;;7.57;6.97;;;26.30;51.20;;;;;;6255243;22;20430;-87
2021/07/02 15:34:21;;;;;;;8.67;7.97;;;26.30;51.60;;;;;;6259368;23;20403;-86
2021/07/02 15:36:48;;;;;;;7.10;6.60;;;26.40;51.50;;;;;;6256467;23;20467;-86
2021/07/02 15:39:15;;;;;;;8.03;6.70;;;26.40;52.20;;;;;;6264919;22;20459;-86
2021/07/02 15:41:43;;;;;;;6.83;6.23;;;26.40;52.30;;;;;;6254801;22;20514;-87
2021/07/02 15:44:09;;;;;;;8.80;7.67;;;26.40;53.00;;;;;;6250455;23;20443;-86
2021/07/02 15:46:36;;;;;;;7.60;7.00;;;26.50;52.20;;;;;;6253027;23;20446;-86
2021/07/02 15:49:03;;;;;;;7.13;6.53;;;26.50;52.40;;;;;;6251921;23;20414;-85
2021/07/02 15:51:31;;;;;;;7.50;6.87;;;26.50;52.20;;;;;;6255653;22;20437;-81
2021/07/02 15:54:00;;;;;;;6.43;5.80;;;26.60;52.50;;;;;;6255926;23;20423;-82
2021/07/02 15:56:27;;;;;;;6.60;6.00;;;26.50;53.20;;;;;;6255638;23;20404;-83
2021/07/02 15:58:53;;;;;;;7.63;7.03;;;26.60;52.90;;;;;;6270516;22;20399;-86
2021/07/02 16:01:20;;;;;;;7.17;6.53;;;26.60;53.10;;;;;;6252590;22;20439;-86
2021/07/02 16:03:52;;;;;;;7.13;6.63;;;26.60;53.00;;;;;;6262873;23;20388;-84
2021/07/02 16:06:18;;;;;;;6.70;6.10;;;26.60;52.20;;;;;;6266212;23;20515;-85
2021/07/02 16:08:46;;;;;;;7.50;6.90;;;26.60;52.50;;;;;;6253611;23;20407;-84
2021/07/02 16:11:13;;;;;;;6.90;6.23;;;26.60;51.70;;;;;;6253269;22;20422;-84
2021/07/02 16:13:47;;;;;;;7.70;6.93;;;26.50;52.20;;;;;;6251048;23;20481;-89
2021/07/02 16:16:14;;;;;;;7.03;6.43;;;26.50;52.30;;;;;;6255596;23;20407;-88
2021/07/02 16:18:41;;;;;;;8.40;7.07;;;26.50;52.30;;;;;;6260170;23;20427;-87
2021/07/02 16:21:08;;;;;;;8.77;7.97;;;26.40;52.20;;;;;;6251720;22;20408;-87
2021/07/02 16:23:39;;;;;;;7.80;7.10;;;26.30;52.80;;;;;;6250691;23;20392;-90
2021/07/02 16:26:07;;;;;;;7.80;7.10;;;26.10;52.80;;;;;;6249192;23;20448;-88
2021/07/02 16:28:34;;;;;;;5.87;5.37;;;25.90;53.30;;;;;;6247810;23;20411;-87
2021/07/02 16:31:01;;;;;;;8.13;7.10;;;25.70;54.50;;;;;;6250019;22;20411;-86
2021/07/02 16:33:29;;;;;;;6.77;6.17;;;25.60;54.60;;;;;;6249624;23;20419;-88
2021/07/02 16:35:55;;;;;;;7.70;7.00;;;25.50;54.80;;;;;;6249744;23;20404;-87
2021/07/02 16:38:22;;;;;;;7.27;6.67;;;25.50;55.20;;;;;;6252338;23;20507;-86
2021/07/02 16:40:49;;;;;;;6.17;5.67;;;25.50;55.00;;;;;;6272151;22;20419;-86
2021/07/02 16:43:18;;;;;;;7.23;6.63;;;25.50;54.70;;;;;;6265191;22;20443;-87
2021/07/02 16:45:45;;;;;;;7.50;6.77;;;25.40;55.00;;;;;;6250308;23;20503;-87
2021/07/02 16:48:12;;;;;;;7.00;6.47;;;25.30;55.60;;;;;;6250309;23;20408;-87
2021/07/02 16:50:41;;;;;;;7.43;6.73;;;25.20;55.50;;;;;;6250403;23;20439;-87
2021/07/02 16:53:09;;;;;;;7.90;7.10;;;25.10;55.50;;;;;;6250921;23;20412;-87
2021/07/02 16:55:36;;;;;;;8.13;7.43;;;25.00;56.20;;;;;;6250745;23;20503;-87
2021/07/02 16:58:03;;;;;;;9.80;8.80;;;24.90;56.40;;;;;;6252342;23;20479;-87
2021/07/02 17:00:33;;;;;;;7.90;7.00;;;24.80;56.00;;;;;;6254850;23;20497;-86
2021/07/02 17:03:00;;;;;;;7.57;6.73;;;24.60;55.50;;;;;;6248199;22;20444;-87
2021/07/02 17:05:28;;;;;;;6.70;6.17;;;24.60;55.50;;;;;;6249415;23;20399;-87
2021/07/02 17:07:55;;;;;;;6.60;6.00;;;24.50;55.90;;;;;;6248208;23;20466;-86
2021/07/02 17:10:26;;;;;;;8.77;7.00;;;24.50;56.70;;;;;;6247088;23;20436;-86
2021/07/02 17:12:54;;;;;;;6.20;5.70;;;24.30;54.80;;;;;;6246807;22;20432;-86
2021/07/02 17:31:01;;;;;;;6.93;6.23;;;24.00;55.00;;;;;;6283687;22;20467;-91
2021/07/02 17:33:28;;;;;;;7.40;6.70;;;23.90;55.50;;;;;;6289798;22;20436;-93
2021/07/02 17:36:14;;;;;;;8.10;6.80;;;23.80;55.80;;;;;;6294826;22;20461;-92
2021/07/02 18:02:28;;;;;;;8.03;6.00;;;23.30;57.10;;;;;;5999148;23;20425;-84
2021/07/02 18:05:16;;;;;;;7.37;6.23;;;23.30;56.70;;;;;;6041014;23;20449;-81
2021/07/02 18:08:00;;;;;;;7.20;6.50;;;23.30;56.60;;;;;;6252690;23;20439;-83
2021/07/02 18:10:39;;;;;;;6.43;5.83;;;23.20;56.90;;;;;;6254210;23;20410;-82
2021/07/02 18:13:25;;;;;;;6.50;6.00;;;23.20;56.90;;;;;;6252625;22;20454;-82
2021/07/02 18:40:50;;;;;;;8.10;7.37;;;22.80;61.00;;;;;;6343596;22;20460;-82
2021/07/02 18:43:53;;;;;;;7.73;6.93;;;22.70;61.90;;;;;;6315306;22;20472;-82
2021/07/02 18:50:25;;;;;;;9.13;7.03;;;22.60;62.40;;;;;;5955943;24;20407;-82
2021/07/02 18:52:58;;;;;;;6.77;6.17;;;22.50;63.10;;;;;;6126237;23;20427;-82
2021/07/02 18:55:54;;;;;;;7.33;6.70;;;22.50;62.90;;;;;;6284182;22;20426;-82
2021/07/02 18:58:40;;;;;;;7.47;6.53;;;22.40;63.20;;;;;;6312384;22;20449;-82
2021/07/02 19:02:01;;;;;;;7.80;7.13;;;22.40;63.80;;;;;;6313108;22;20423;-81
2021/07/02 19:11:36;;;;;;;10.07;7.60;;;22.20;65.20;;;;;;6215067;22;20467;-81
2021/07/02 19:14:44;;;;;;;8.63;7.90;;;22.10;66.50;;;;;;6349284;22;20390;-82
2021/07/02 19:21:10;;;;;;;9.00;7.50;;;21.90;67.20;;;;;;6356125;22;20404;-82
2021/07/02 19:24:02;;;;;;;8.13;7.53;;;21.80;67.30;;;;;;6317069;22;20397;-83
2021/07/02 19:26:50;;;;;;;8.87;7.97;;;21.80;67.40;;;;;;6317038;22;20461;-81
2021/07/02 20:02:11;;;;;;;10.63;8.57;;;20.80;76.50;;;;;;6249809;22;20422;-80
2021/07/02 20:04:50;;;;;;;9.93;7.90;;;20.80;76.70;;;;;;6345023;22;20716;-80
2021/07/02 20:07:40;;;;;;;10.27;8.50;;;20.70;76.60;;;;;;6346693;22;20435;-79
2021/07/02 20:10:28;;;;;;;13.10;9.33;;;20.70;77.90;;;;;;6345764;22;20397;-79
2021/07/02 20:13:51;;;;;;;12.50;10.40;;;20.70;79.20;;;;;;6311783;22;20501;-79
2021/07/02 20:29:23;;;;;;;11.33;10.17;;;20.20;82.90;;;;;;6294401;22;20399;-79
2021/07/02 20:32:07;;;;;;;12.07;9.53;;;20.20;82.70;;;;;;6310458;22;20789;-79
2021/07/02 20:34:39;;;;;;;13.10;10.97;;;20.10;83.80;;;;;;6322289;22;20397;-80
2021/07/02 20:37:10;;;;;;;14.47;11.40;;;20.10;84.50;;;;;;6318926;22;20402;-80
2021/07/02 20:39:41;;;;;;;11.93;10.70;;;20.10;84.50;;;;;;6314702;22;20394;-84
2021/07/02 20:42:19;;;;;;;12.60;9.97;;;20.10;84.40;;;;;;6320821;22;20499;-84
2021/07/02 20:44:47;;;;;;;13.33;12.00;;;20.10;85.40;;;;;;6317012;22;20429;-82
2021/07/02 20:47:37;;;;;;;13.60;11.87;;;20.00;85.40;;;;;;6313139;22;20442;-82
2021/07/02 20:50:07;;;;;;;16.37;12.17;;;19.90;86.00;;;;;;6315960;22;20437;-82
2021/07/02 20:52:39;;;;;;;13.50;11.90;;;19.90;86.80;;;;;;6308237;22;20425;-82
2021/07/02 20:55:09;;;;;;;14.50;12.27;;;19.90;87.10;;;;;;6308526;22;20470;-82
2021/07/02 20:57:36;;;;;;;15.23;11.63;;;19.90;87.30;;;;;;6310042;22;20462;-82
2021/07/02 21:00:04;;;;;;;13.50;12.20;;;19.80;87.60;;;;;;6311815;22;20443;-81
2021/07/02 21:02:35;;;;;;;15.03;13.43;;;19.70;89.10;;;;;;6287577;22;20548;-81
2021/07/02 21:05:49;;;;;;;14.40;12.80;;;19.70;89.50;;;;;;6285735;22;20415;-82
2021/07/02 21:08:21;;;;;;;14.23;12.00;;;19.60;90.00;;;;;;6283298;22;20437;-82
2021/07/02 21:10:50;;;;;;;14.30;11.23;;;19.50;89.50;;;;;;6283182;22;20428;-81
2021/07/02 21:13:30;;;;;;;19.57;12.47;;;19.50;90.10;;;;;;6284102;22;20428;-82
2021/07/02 21:15:59;;;;;;;19.13;14.30;;;19.40;90.40;;;;;;6283687;22;20400;-82
2021/07/02 21:18:27;;;;;;;18.27;15.10;;;19.30;90.30;;;;;;6284061;22;20412;-82
2021/07/02 21:21:13;;;;;;;19.70;14.87;;;19.20;90.80;;;;;;6292862;22;20403;-83
2021/07/02 21:23:44;;;;;;;16.30;14.50;;;19.20;90.80;;;;;;6289814;22;20397;-82
2021/07/02 21:26:28;;;;;;;18.63;15.33;;;19.20;90.80;;;;;;6297577;22;20430;-81
2021/07/02 21:29:01;;;;;;;16.47;14.77;;;19.20;91.30;;;;;;6289163;22;20391;-83
2021/07/02 21:31:56;;;;;;;14.90;12.90;;;19.10;91.50;;;;;;6293471;22;20809;-84
2021/07/02 21:34:28;;;;;;;14.27;12.67;;;19.00;91.80;;;;;;6285984;22;20492;-82
2021/07/02 21:37:00;;;;;;;16.70;13.70;;;18.90;92.20;;;;;;6283921;22;20775;-81
2021/07/02 21:39:31;;;;;;;13.33;12.03;;;18.80;92.40;;;;;;6283004;22;20407;-84
2021/07/02 21:42:00;;;;;;;15.23;12.73;;;18.90;92.90;;;;;;6285804;22;20823;-84
2021/07/02 21:44:28;;;;;;;14.37;12.73;;;18.80;93.10;;;;;;6287146;22;20976;-81
2021/07/02 21:47:06;;;;;;;15.20;13.70;;;18.80;93.40;;;;;;6284241;22;20847;-82
2021/07/02 21:49:33;;;;;;;14.03;12.70;;;18.70;93.70;;;;;;6283583;22;20400;-82
2021/07/02 21:52:11;;;;;;;15.83;14.10;;;18.70;93.90;;;;;;6282510;22;20459;-82
2021/07/02 21:54:41;;;;;;;14.97;13.27;;;18.70;94.20;;;;;;6288623;22;20410;-82
2021/07/02 21:57:09;;;;;;;16.53;13.10;;;18.70;94.60;;;;;;6290119;22;20384;-82
2021/07/02 21:59:35;;;;;;;15.90;14.20;;;18.70;94.70;;;;;;6291367;22;20408;-81
2021/07/02 22:02:03;;;;;;;17.97;13.67;;;18.60;95.10;;;;;;6297714;22;20438;-82
2021/07/02 22:04:30;;;;;;;15.30;13.70;;;18.50;95.40;;;;;;6291768;22;20405;-80
2021/07/02 22:06:58;;;;;;;15.10;13.63;;;18.50;95.80;;;;;;6287708;22;20445;-82
2021/07/02 22:09:26;;;;;;;16.83;13.70;;;18.40;96.30;;;;;;6292822;22;20392;-82
2021/07/02 22:11:54;;;;;;;15.67;14.13;;;18.40;96.60;;;;;;6298154;22;20425;-82
2021/07/02 22:14:21;;;;;;;19.83;15.00;;;18.40;97.00;;;;;;6287241;22;20399;-82
2021/07/02 22:16:49;;;;;;;15.63;13.93;;;18.40;96.90;;;;;;6280314;22;20419;-81
2021/07/02 22:19:16;;;;;;;16.63;15.03;;;18.40;97.10;;;;;;6284949;22;20395;-82
2021/07/02 22:21:43;;;;;;;16.37;14.77;;;18.40;97.60;;;;;;6285562;22;20836;-81
2021/07/02 22:24:10;;;;;;;16.83;13.80;;;18.40;97.80;;;;;;6288589;22;20882;-82
2021/07/02 22:26:39;;;;;;;14.87;13.37;;;18.30;98.20;;;;;;6284262;22;20407;-82
2021/07/02 22:29:06;;;;;;;18.43;15.10;;;18.20;98.60;;;;;;6297815;22;20435;-81
2021/07/02 22:31:46;;;;;;;16.83;14.07;;;18.20;98.90;;;;;;6295589;22;20921;-84
2021/07/02 22:34:13;;;;;;;22.20;16.40;;;18.20;99.60;;;;;;6290235;22;20413;-82
2021/07/02 22:36:42;;;;;;;15.70;14.00;;;18.20;99.90;;;;;;6285515;22;20496;-83
2021/07/02 22:39:09;;;;;;;17.77;15.57;;;18.10;99.90;;;;;;6286624;22;20422;-82
2021/07/02 22:41:35;;;;;;;19.93;14.10;;;18.10;99.90;;;;;;6288393;22;20427;-83
2021/07/02 22:44:04;;;;;;;15.80;14.07;;;18.00;99.90;;;;;;6292168;22;20403;-83
2021/07/02 22:46:31;;;;;;;17.50;14.47;;;18.00;99.90;;;;;;6290451;22;20398;-83
2021/07/02 22:48:57;;;;;;;14.97;13.47;;;18.00;99.90;;;;;;6285781;22;20435;-83
2021/07/02 22:51:24;;;;;;;15.73;13.70;;;17.90;99.90;;;;;;6286999;22;20432;-83
2021/07/02 22:53:51;;;;;;;16.00;13.07;;;17.90;99.90;;;;;;6286774;22;20966;-81
2021/07/02 22:56:18;;;;;;;15.17;13.87;;;17.80;99.90;;;;;;6287575;22;20411;-83
2021/07/02 22:58:45;;;;;;;15.90;14.20;;;17.80;99.90;;;;;;6291316;22;20406;-82
2021/07/02 23:01:13;;;;;;;16.10;13.83;;;17.80;99.90;;;;;;6285842;22;20434;-81
2021/07/02 23:03:39;;;;;;;18.87;14.90;;;17.80;99.90;;;;;;6291626;22;20418;-82
2021/07/02 23:06:06;;;;;;;16.60;15.00;;;17.80;99.90;;;;;;6304401;22;20410;-81
2021/07/02 23:08:33;;;;;;;17.20;15.40;;;17.80;99.90;;;;;;6304560;22;20457;-81
2021/07/02 23:11:00;;;;;;;17.57;14.33;;;17.70;99.90;;;;;;6299380;22;20961;-81
2021/07/02 23:13:26;;;;;;;17.93;14.70;;;17.70;99.90;;;;;;6288665;22;20407;-80
2021/07/02 23:15:53;;;;;;;17.43;13.87;;;17.70;99.90;;;;;;6303842;22;20448;-80
2021/07/02 23:18:21;;;;;;;18.60;14.20;;;17.70;99.90;;;;;;6300690;22;20391;-82
2021/07/02 23:20:48;;;;;;;17.37;13.63;;;17.70;99.90;;;;;;6282546;22;20406;-82
2021/07/02 23:23:14;;;;;;;15.73;13.87;;;17.60;99.90;;;;;;6279535;22;20389;-83
2021/07/02 23:25:42;;;;;;;16.63;15.00;;;17.60;99.90;;;;;;6288519;22;20403;-83
2021/07/02 23:28:08;;;;;;;14.87;13.30;;;17.50;99.90;;;;;;6286533;22;20435;-83
2021/07/02 23:30:35;;;;;;;16.20;14.60;;;17.40;99.90;;;;;;6285299;22;20413;-82
2021/07/02 23:33:02;;;;;;;17.47;15.70;;;17.40;99.90;;;;;;6286443;22;20727;-82
2021/07/02 23:35:30;;;;;;;16.47;14.77;;;17.40;99.90;;;;;;6280078;22;20723;-83
2021/07/02 23:37:57;;;;;;;18.10;15.37;;;17.40;99.90;;;;;;6279864;22;20395;-82
2021/07/02 23:40:24;;;;;;;18.33;14.70;;;17.40;99.90;;;;;;6280763;22;20408;-83
2021/07/02 23:42:51;;;;;;;18.57;15.13;;;17.30;99.90;;;;;;6287637;22;20430;-82
2021/07/02 23:45:18;;;;;;;18.13;15.20;;;17.30;99.90;;;;;;6290530;22;20407;-82
2021/07/02 23:47:44;;;;;;;16.47;14.67;;;17.20;99.90;;;;;;6286836;22;20441;-81
2021/07/02 23:50:12;;;;;;;17.03;14.07;;;17.20;99.90;;;;;;6293117;22;20479;-81
2021/07/02 23:52:40;;;;;;;15.90;14.07;;;17.20;99.90;;;;;;6283630;22;20431;-81
2021/07/02 23:55:08;;;;;;;15.90;14.23;;;17.30;99.90;;;;;;6282649;22;20392;-81
2021/07/02 23:57:35;;;;;;;16.13;14.50;;;17.20;99.90;;;;;;6283561;22;20384;-82
